createdAt,value
2023-05-16T00:00:22.026Z,90.83
2023-05-16T00:01:22.041Z,90.83
2023-05-16T00:02:22.045Z,90.93
2023-05-16T00:03:22.064Z,90.73
2023-05-16T00:04:21.982Z,91.14
2023-05-16T00:05:21.942Z,90.93
2023-05-16T00:06:21.948Z,90.42
2023-05-16T00:07:21.925Z,90.62
2023-05-16T00:08:21.915Z,90.73
2023-05-16T00:09:21.926Z,90.62
2023-05-16T00:10:21.915Z,90.93
2023-05-16T00:11:21.887Z,91.03
2023-05-16T00:12:21.873Z,91.38
2023-05-16T00:13:21.844Z,91.35
2023-05-16T00:14:21.866Z,91.28
2023-05-16T00:15:21.823Z,91.80
2023-05-16T00:16:22.090Z,91.38
2023-05-16T00:17:21.852Z,91.69
2023-05-16T00:18:21.819Z,91.28
2023-05-16T00:19:21.807Z,91.80
2023-05-16T00:20:21.770Z,92.00
2023-05-16T00:21:23.626Z,91.69
2023-05-16T00:22:21.747Z,92.00
2023-05-16T00:23:21.740Z,91.59
2023-05-16T00:24:21.743Z,91.90
2023-05-16T00:25:21.756Z,91.80
2023-05-16T00:26:21.821Z,92.00
2023-05-16T00:27:21.726Z,92.10
2023-05-16T00:28:21.679Z,92.21
2023-05-16T00:29:21.678Z,92.00
2023-05-16T00:30:21.660Z,92.00
2023-05-16T00:31:21.697Z,91.90
2023-05-16T00:32:21.862Z,92.04
2023-05-16T00:33:21.670Z,92.25
2023-05-16T00:34:21.696Z,92.04
2023-05-16T00:35:21.616Z,92.08
2023-05-16T00:36:23.811Z,91.63
2023-05-16T00:37:21.581Z,91.99
2023-05-16T00:38:21.570Z,92.08
2023-05-16T00:39:21.566Z,92.08
2023-05-16T00:40:21.557Z,92.29
2023-05-16T00:41:21.570Z,92.60
2023-05-16T00:42:21.534Z,92.70
2023-05-16T00:43:21.504Z,92.40
2023-05-16T00:44:21.520Z,92.70
2023-05-16T00:45:21.494Z,92.80
2023-05-16T00:46:21.529Z,92.80
2023-05-16T00:47:21.474Z,92.86
2023-05-16T00:48:21.561Z,93.12
2023-05-16T00:49:21.437Z,93.52
2023-05-16T00:50:21.463Z,93.48
2023-05-16T00:51:21.419Z,93.48
2023-05-16T00:52:21.425Z,93.12
2023-05-16T00:53:21.409Z,93.63
2023-05-16T00:54:21.384Z,94.20
2023-05-16T00:55:21.379Z,93.89
2023-05-16T00:56:21.381Z,93.89
2023-05-16T00:57:21.365Z,93.68
2023-05-16T00:58:21.335Z,93.83
2023-05-16T00:59:21.338Z,93.89
2023-05-16T01:00:21.333Z,93.68
2023-05-16T01:01:21.360Z,93.99
2023-05-16T01:02:21.342Z,93.83
2023-05-16T01:03:21.478Z,94.10
2023-05-16T01:04:21.295Z,93.89
2023-05-16T01:05:21.269Z,93.79
2023-05-16T01:06:21.276Z,93.73
2023-05-16T01:07:21.229Z,93.99
2023-05-16T01:08:21.217Z,93.68
2023-05-16T01:09:21.218Z,93.99
2023-05-16T01:10:21.199Z,93.79
2023-05-16T01:11:21.209Z,93.59
2023-05-16T01:12:21.196Z,93.99
2023-05-16T01:13:21.282Z,94.30
2023-05-16T01:14:21.150Z,94.30
2023-05-16T01:15:21.135Z,93.68
2023-05-16T01:16:21.167Z,93.99
2023-05-16T01:17:21.205Z,94.51
2023-05-16T01:18:21.102Z,94.61
2023-05-16T01:19:22.114Z,94.10
2023-05-16T01:20:21.102Z,94.10
2023-05-16T01:21:21.068Z,93.99
2023-05-16T01:22:21.092Z,94.40
2023-05-16T01:23:21.077Z,94.20
2023-05-16T01:24:21.031Z,94.30
2023-05-16T01:25:21.031Z,94.34
2023-05-16T01:26:21.006Z,93.89
2023-05-16T01:27:21.003Z,94.51
2023-05-16T01:28:20.997Z,94.30
2023-05-16T01:29:21.100Z,94.10
2023-05-16T01:30:20.960Z,94.81
2023-05-16T01:31:21.007Z,94.30
2023-05-16T01:32:20.978Z,94.40
2023-05-16T01:33:20.951Z,94.14
2023-05-16T01:34:20.920Z,93.99
2023-05-16T01:35:20.908Z,93.99
2023-05-16T01:36:20.891Z,94.71
2023-05-16T01:37:20.884Z,94.20
2023-05-16T01:38:20.895Z,94.10
2023-05-16T01:39:20.865Z,94.30
2023-05-16T01:40:20.860Z,94.34
2023-05-16T01:41:20.860Z,93.99
2023-05-16T01:42:20.822Z,94.61
2023-05-16T01:43:20.839Z,94.51
2023-05-16T01:44:20.801Z,94.14
2023-05-16T01:45:20.836Z,94.55
2023-05-16T01:46:20.876Z,94.30
2023-05-16T01:47:20.771Z,94.04
2023-05-16T01:48:20.753Z,94.34
2023-05-16T01:49:20.767Z,94.34
2023-05-16T01:50:20.788Z,94.14
2023-05-16T01:51:20.728Z,94.55
2023-05-16T01:52:20.749Z,94.24
2023-05-16T01:53:20.705Z,94.65
2023-05-16T01:54:20.704Z,94.55
2023-05-16T01:55:20.690Z,94.76
2023-05-16T01:56:20.683Z,94.45
2023-05-16T01:57:20.664Z,94.96
2023-05-16T01:58:24.525Z,94.65
2023-05-16T01:59:20.675Z,94.65
2023-05-16T02:00:20.708Z,95.06
2023-05-16T02:01:20.725Z,94.65
2023-05-16T02:02:20.733Z,94.85
2023-05-16T02:03:20.767Z,95.27
2023-05-16T02:04:20.703Z,95.12
2023-05-16T02:05:20.730Z,95.74
2023-05-16T02:06:20.548Z,94.61
2023-05-16T02:07:20.546Z,95.27
2023-05-16T02:08:20.552Z,94.92
2023-05-16T02:09:20.540Z,95.06
2023-05-16T02:10:20.509Z,94.85
2023-05-16T02:11:20.497Z,95.17
2023-05-16T02:12:20.480Z,94.76
2023-05-16T02:13:20.493Z,94.65
2023-05-16T02:14:20.464Z,94.76
2023-05-16T02:15:20.471Z,94.45
2023-05-16T02:16:20.497Z,94.90
2023-05-16T02:17:20.476Z,94.49
2023-05-16T02:18:20.431Z,94.39
2023-05-16T02:19:20.562Z,95.10
2023-05-16T02:20:20.387Z,95.21
2023-05-16T02:21:20.395Z,95.93
2023-05-16T02:22:20.426Z,95.83
2023-05-16T02:23:20.386Z,96.03
2023-05-16T02:24:20.345Z,96.14
2023-05-16T02:25:20.340Z,95.93
2023-05-16T02:26:20.320Z,95.93
2023-05-16T02:27:20.359Z,95.87
2023-05-16T02:28:20.301Z,95.97
2023-05-16T02:29:20.320Z,96.28
2023-05-16T02:30:20.283Z,96.28
2023-05-16T02:31:20.328Z,96.18
2023-05-16T02:32:20.258Z,95.92
2023-05-16T02:33:20.266Z,96.08
2023-05-16T02:34:20.250Z,96.28
2023-05-16T02:35:20.226Z,96.08
2023-05-16T02:36:20.229Z,96.22
2023-05-16T02:37:20.201Z,96.59
2023-05-16T02:38:20.192Z,96.53
2023-05-16T02:39:20.209Z,96.18
2023-05-16T02:40:20.166Z,96.28
2023-05-16T02:41:20.157Z,96.69
2023-05-16T02:42:20.140Z,96.59
2023-05-16T02:43:20.136Z,97.20
2023-05-16T02:44:27.823Z,97.10
2023-05-16T02:45:20.237Z,96.80
2023-05-16T02:46:20.193Z,96.90
2023-05-16T02:47:20.167Z,97.20
2023-05-16T02:48:20.092Z,96.80
2023-05-16T02:49:20.088Z,97.52
2023-05-16T02:50:20.075Z,97.52
2023-05-16T02:51:20.065Z,97.37
2023-05-16T02:52:20.024Z,97.37
2023-05-16T02:53:20.027Z,97.16
2023-05-16T02:54:20.002Z,97.67
2023-05-16T02:55:22.289Z,97.67
2023-05-16T02:56:19.985Z,97.78
2023-05-16T02:57:19.983Z,97.57
2023-05-16T02:58:19.990Z,97.47
2023-05-16T02:59:19.966Z,97.57
2023-05-16T03:00:19.994Z,97.57
2023-05-16T03:01:19.970Z,97.78
2023-05-16T03:02:19.979Z,97.73
2023-05-16T03:03:20.026Z,97.53
2023-05-16T03:04:19.893Z,97.63
2023-05-16T03:05:19.912Z,97.63
2023-05-16T03:06:19.867Z,97.63
2023-05-16T03:07:19.860Z,97.73
2023-05-16T03:08:20.233Z,97.83
2023-05-16T03:09:19.848Z,97.79
2023-05-16T03:10:19.826Z,97.58
2023-05-16T03:11:19.843Z,97.22
2023-05-16T03:12:19.810Z,97.58
2023-05-16T03:13:19.795Z,97.38
2023-05-16T03:14:19.784Z,97.07
2023-05-16T03:15:19.790Z,97.23
2023-05-16T03:16:19.838Z,97.54
2023-05-16T03:17:19.815Z,97.33
2023-05-16T03:18:19.733Z,97.33
2023-05-16T03:19:19.972Z,97.44
2023-05-16T03:20:19.738Z,96.62
2023-05-16T03:21:19.721Z,96.72
2023-05-16T03:22:19.682Z,96.51
2023-05-16T03:23:19.685Z,96.82
2023-05-16T03:24:19.710Z,96.62
2023-05-16T03:25:19.672Z,96.37
2023-05-16T03:26:19.660Z,96.78
2023-05-16T03:27:19.640Z,96.47
2023-05-16T03:28:19.621Z,96.78
2023-05-16T03:29:19.634Z,96.47
2023-05-16T03:30:19.601Z,96.88
2023-05-16T03:31:19.672Z,96.67
2023-05-16T03:32:19.642Z,96.06
2023-05-16T03:33:19.574Z,96.37
2023-05-16T03:34:19.549Z,96.26
2023-05-16T03:35:19.543Z,96.37
2023-05-16T03:36:19.625Z,96.06
2023-05-16T03:37:19.556Z,96.47
2023-05-16T03:38:19.501Z,96.26
2023-05-16T03:39:22.121Z,95.95
2023-05-16T03:40:19.501Z,96.37
2023-05-16T03:41:19.481Z,96.26
2023-05-16T03:42:19.475Z,96.06
2023-05-16T03:43:19.450Z,96.26
2023-05-16T03:44:19.429Z,96.06
2023-05-16T03:45:19.445Z,96.06
2023-05-16T03:46:19.467Z,96.16
2023-05-16T03:47:19.414Z,95.75
2023-05-16T03:48:19.401Z,95.95
2023-05-16T03:49:19.382Z,95.44
2023-05-16T03:50:19.391Z,95.24
2023-05-16T03:51:19.385Z,94.73
2023-05-16T03:52:19.368Z,95.65
2023-05-16T03:53:19.356Z,94.83
2023-05-16T03:54:19.320Z,94.93
2023-05-16T03:55:27.271Z,94.73
2023-05-16T03:56:19.420Z,94.52
2023-05-16T03:57:19.352Z,94.62
2023-05-16T03:58:19.348Z,94.58
2023-05-16T03:59:19.364Z,94.17
2023-05-16T04:00:19.298Z,94.17
2023-05-16T04:01:19.351Z,94.37
2023-05-16T04:02:19.290Z,93.86
2023-05-16T04:03:19.314Z,94.21
2023-05-16T04:04:19.211Z,94.27
2023-05-16T04:05:19.217Z,93.45
2023-05-16T04:06:19.255Z,93.96
2023-05-16T04:07:20.335Z,94.27
2023-05-16T04:08:19.172Z,94.07
2023-05-16T04:09:19.199Z,94.07
2023-05-16T04:10:19.137Z,93.86
2023-05-16T04:11:19.161Z,94.27
2023-05-16T04:12:19.120Z,94.07
2023-05-16T04:13:19.150Z,94.07
2023-05-16T04:14:19.107Z,94.07
2023-05-16T04:15:19.090Z,93.86
2023-05-16T04:16:19.091Z,93.55
2023-05-16T04:17:19.073Z,93.76
2023-05-16T04:18:19.058Z,93.62
2023-05-16T04:19:19.481Z,93.51
2023-05-16T04:20:19.025Z,93.86
2023-05-16T04:21:19.037Z,93.66
2023-05-16T04:22:18.996Z,93.62
2023-05-16T04:23:19.059Z,93.71
2023-05-16T04:24:18.997Z,93.55
2023-05-16T04:25:19.009Z,93.62
2023-05-16T04:26:18.951Z,93.71
2023-05-16T04:27:18.947Z,93.41
2023-05-16T04:28:18.953Z,93.62
2023-05-16T04:29:18.953Z,93.51
2023-05-16T04:30:18.905Z,93.82
2023-05-16T04:31:18.948Z,93.62
2023-05-16T04:32:18.896Z,93.71
2023-05-16T04:33:18.898Z,93.67
2023-05-16T04:34:18.887Z,93.82
2023-05-16T04:35:18.873Z,93.20
2023-05-16T04:36:18.842Z,92.75
2023-05-16T04:37:18.862Z,92.90
2023-05-16T04:38:18.843Z,92.75
2023-05-16T04:39:18.815Z,92.65
2023-05-16T04:40:18.797Z,92.75
2023-05-16T04:41:18.813Z,93.16
2023-05-16T04:42:18.796Z,93.16
2023-05-16T04:43:18.783Z,93.26
2023-05-16T04:44:18.750Z,92.71
2023-05-16T04:45:18.762Z,92.71
2023-05-16T04:46:18.805Z,92.44
2023-05-16T04:47:18.817Z,92.34
2023-05-16T04:48:18.744Z,92.40
2023-05-16T04:49:18.698Z,92.24
2023-05-16T04:50:18.700Z,92.19
2023-05-16T04:51:18.676Z,92.44
2023-05-16T04:52:18.665Z,91.52
2023-05-16T04:53:18.677Z,91.83
2023-05-16T04:54:18.648Z,91.93
2023-05-16T04:55:18.630Z,91.93
2023-05-16T04:56:18.630Z,92.19
2023-05-16T04:57:19.412Z,91.99
2023-05-16T04:58:18.591Z,91.99
2023-05-16T04:59:18.614Z,91.73
2023-05-16T05:00:18.632Z,91.73
2023-05-16T05:01:18.576Z,91.63
2023-05-16T05:02:18.541Z,91.78
2023-05-16T05:03:18.653Z,91.38
2023-05-16T05:04:18.852Z,91.52
2023-05-16T05:05:18.563Z,90.39
2023-05-16T05:06:18.521Z,90.91
2023-05-16T05:07:18.493Z,91.07
2023-05-16T05:08:18.481Z,90.86
2023-05-16T05:09:18.490Z,90.39
2023-05-16T05:10:18.457Z,90.39
2023-05-16T05:11:18.465Z,90.39
2023-05-16T05:12:18.466Z,90.25
2023-05-16T05:13:18.439Z,89.53
2023-05-16T05:14:18.422Z,89.58
2023-05-16T05:15:18.399Z,89.98
2023-05-16T05:16:18.381Z,89.84
2023-05-16T05:17:18.418Z,89.74
2023-05-16T05:18:18.414Z,89.74
2023-05-16T05:19:18.384Z,89.06
2023-05-16T05:20:19.569Z,88.86
2023-05-16T05:21:18.331Z,88.86
2023-05-16T05:22:18.332Z,89.98
2023-05-16T05:23:18.314Z,89.37
2023-05-16T05:24:18.344Z,89.27
2023-05-16T05:25:18.311Z,89.98
2023-05-16T05:26:18.285Z,89.78
2023-05-16T05:27:18.271Z,89.12
2023-05-16T05:28:18.259Z,88.92
2023-05-16T05:29:18.256Z,88.62
2023-05-16T05:30:18.236Z,88.62
2023-05-16T05:31:18.280Z,88.71
2023-05-16T05:32:18.195Z,88.10
2023-05-16T05:33:18.230Z,86.98
2023-05-16T05:34:18.185Z,87.73
2023-05-16T05:35:18.174Z,87.70
2023-05-16T05:36:18.182Z,87.32
2023-05-16T05:37:18.151Z,87.90
2023-05-16T05:38:18.142Z,87.73
2023-05-16T05:39:18.115Z,87.32
2023-05-16T05:40:18.118Z,87.32
2023-05-16T05:41:18.122Z,86.34
2023-05-16T05:42:18.092Z,87.16
2023-05-16T05:43:18.093Z,87.37
2023-05-16T05:44:18.065Z,87.06
2023-05-16T05:45:18.061Z,87.88
2023-05-16T05:46:18.089Z,88.49
2023-05-16T05:47:18.057Z,87.98
2023-05-16T05:48:18.043Z,88.18
2023-05-16T05:49:18.001Z,87.88
2023-05-16T05:50:18.021Z,87.88
2023-05-16T05:51:17.992Z,87.37
2023-05-16T05:52:17.979Z,86.75
2023-05-16T05:53:17.960Z,87.22
2023-05-16T05:54:17.971Z,87.84
2023-05-16T05:55:17.928Z,87.12
2023-05-16T05:56:17.938Z,86.81
2023-05-16T05:57:17.908Z,86.91
2023-05-16T05:58:17.952Z,86.51
2023-05-16T05:59:17.908Z,87.37
2023-05-16T06:00:17.899Z,87.43
2023-05-16T06:01:17.925Z,86.91
2023-05-16T06:02:17.917Z,86.71
2023-05-16T06:03:17.889Z,85.99
2023-05-16T06:04:17.862Z,86.44
2023-05-16T06:05:17.846Z,87.26
2023-05-16T06:06:17.812Z,87.26
2023-05-16T06:07:17.800Z,87.47
2023-05-16T06:08:17.789Z,87.98
2023-05-16T06:09:17.783Z,87.57
2023-05-16T06:10:17.813Z,87.16
2023-05-16T06:11:17.762Z,87.26
2023-05-16T06:12:17.748Z,87.37
2023-05-16T06:13:17.732Z,87.47
2023-05-16T06:14:17.721Z,87.37
2023-05-16T06:15:17.711Z,86.96
2023-05-16T06:16:17.795Z,87.37
2023-05-16T06:17:18.186Z,87.26
2023-05-16T06:18:17.702Z,86.04
2023-05-16T06:19:17.727Z,87.37
2023-05-16T06:20:17.653Z,86.96
2023-05-16T06:21:17.655Z,87.16
2023-05-16T06:22:17.628Z,86.85
2023-05-16T06:23:19.244Z,87.16
2023-05-16T06:24:17.617Z,87.26
2023-05-16T06:25:17.587Z,86.69
2023-05-16T06:26:17.606Z,87.37
2023-05-16T06:27:17.567Z,87.37
2023-05-16T06:28:17.559Z,86.96
2023-05-16T06:29:17.570Z,87.16
2023-05-16T06:30:17.571Z,86.34
2023-05-16T06:31:17.579Z,87.10
2023-05-16T06:32:17.514Z,87.51
2023-05-16T06:33:17.522Z,86.90
2023-05-16T06:34:17.493Z,87.55
2023-05-16T06:35:17.506Z,88.17
2023-05-16T06:36:17.524Z,88.06
2023-05-16T06:37:17.466Z,88.37
2023-05-16T06:38:17.447Z,88.74
2023-05-16T06:39:17.430Z,89.04
2023-05-16T06:40:17.436Z,89.36
2023-05-16T06:41:17.453Z,89.36
2023-05-16T06:42:17.399Z,89.04
2023-05-16T06:43:17.422Z,88.53
2023-05-16T06:44:17.391Z,88.43
2023-05-16T06:45:17.395Z,89.04
2023-05-16T06:46:17.407Z,89.15
2023-05-16T06:47:17.341Z,89.29
2023-05-16T06:48:17.396Z,89.39
2023-05-16T06:49:17.339Z,89.19
2023-05-16T06:50:17.328Z,89.39
2023-05-16T06:51:17.325Z,88.98
2023-05-16T06:52:17.288Z,89.39
2023-05-16T06:53:17.309Z,89.90
2023-05-16T06:54:17.271Z,90.07
2023-05-16T06:55:17.255Z,90.69
2023-05-16T06:56:17.245Z,89.45
2023-05-16T06:57:17.250Z,90.28
2023-05-16T06:58:17.233Z,89.36
2023-05-16T06:59:17.198Z,90.01
2023-05-16T07:00:17.192Z,90.07
2023-05-16T07:01:20.206Z,89.87
2023-05-16T07:02:17.233Z,90.37
2023-05-16T07:03:17.331Z,89.97
2023-05-16T07:04:17.197Z,89.97
2023-05-16T07:05:17.180Z,90.07
2023-05-16T07:06:17.124Z,89.45
2023-05-16T07:07:17.105Z,89.45
2023-05-16T07:08:17.121Z,89.76
2023-05-16T07:09:17.109Z,89.92
2023-05-16T07:10:17.096Z,89.83
2023-05-16T07:11:17.060Z,89.62
2023-05-16T07:12:17.054Z,89.83
2023-05-16T07:13:17.060Z,90.23
2023-05-16T07:14:17.245Z,88.59
2023-05-16T07:15:17.023Z,89.45
2023-05-16T07:16:17.064Z,89.21
2023-05-16T07:17:17.019Z,89.72
2023-05-16T07:18:17.007Z,89.04
2023-05-16T07:19:17.034Z,88.64
2023-05-16T07:20:16.965Z,89.56
2023-05-16T07:21:17.012Z,89.25
2023-05-16T07:22:16.976Z,89.25
2023-05-16T07:23:17.098Z,89.15
2023-05-16T07:24:16.920Z,89.21
2023-05-16T07:25:16.920Z,89.45
2023-05-16T07:26:16.914Z,89.97
2023-05-16T07:27:16.881Z,89.66
2023-05-16T07:28:16.869Z,89.83
2023-05-16T07:29:16.898Z,89.83
2023-05-16T07:30:16.854Z,90.13
2023-05-16T07:31:16.863Z,90.03
2023-05-16T07:32:16.978Z,90.03
2023-05-16T07:33:16.830Z,89.97
2023-05-16T07:34:16.808Z,89.56
2023-05-16T07:35:16.789Z,89.97
2023-05-16T07:36:17.761Z,89.66
2023-05-16T07:37:16.894Z,89.87
2023-05-16T07:38:16.886Z,89.87
2023-05-16T07:39:16.781Z,89.25
2023-05-16T07:40:16.757Z,89.04
2023-05-16T07:41:16.744Z,89.25
2023-05-16T07:42:16.730Z,90.32
2023-05-16T07:43:16.703Z,90.17
2023-05-16T07:44:16.707Z,89.87
2023-05-16T07:45:16.686Z,89.76
2023-05-16T07:46:16.727Z,89.87
2023-05-16T07:47:16.653Z,90.07
2023-05-16T07:48:16.688Z,90.58
2023-05-16T07:49:16.624Z,89.81
2023-05-16T07:50:16.659Z,89.81
2023-05-16T07:51:16.665Z,90.67
2023-05-16T07:52:16.600Z,90.56
2023-05-16T07:53:16.622Z,91.80
2023-05-16T07:54:16.567Z,91.59
2023-05-16T07:55:16.577Z,91.49
2023-05-16T07:56:16.548Z,91.63
2023-05-16T07:57:16.546Z,92.04
2023-05-16T07:58:16.532Z,91.84
2023-05-16T07:59:16.596Z,92.46
2023-05-16T08:00:16.507Z,92.76
2023-05-16T08:01:16.481Z,92.55
2023-05-16T08:02:16.509Z,92.76
2023-05-16T08:03:16.655Z,92.55
2023-05-16T08:04:16.459Z,92.55
2023-05-16T08:05:16.569Z,92.14
2023-05-16T08:06:16.467Z,92.76
2023-05-16T08:07:16.414Z,92.86
2023-05-16T08:08:16.429Z,92.46
2023-05-16T08:09:16.470Z,92.66
2023-05-16T08:10:16.416Z,92.55
2023-05-16T08:11:16.406Z,92.46
2023-05-16T08:12:16.380Z,92.55
2023-05-16T08:13:16.346Z,92.76
2023-05-16T08:14:16.357Z,92.61
2023-05-16T08:15:16.352Z,92.86
2023-05-16T08:16:16.397Z,92.14
2023-05-16T08:17:16.318Z,91.69
2023-05-16T08:18:16.542Z,92.51
2023-05-16T08:19:16.312Z,92.04
2023-05-16T08:20:16.292Z,91.53
2023-05-16T08:21:16.253Z,92.14
2023-05-16T08:22:16.291Z,92.04
2023-05-16T08:23:16.263Z,92.04
2023-05-16T08:24:18.214Z,91.94
2023-05-16T08:25:16.266Z,92.46
2023-05-16T08:26:16.229Z,92.46
2023-05-16T08:27:16.185Z,92.25
2023-05-16T08:28:16.178Z,92.04
2023-05-16T08:29:16.167Z,91.94
2023-05-16T08:30:16.188Z,92.04
2023-05-16T08:31:16.155Z,91.57
2023-05-16T08:32:16.134Z,92.66
2023-05-16T08:33:16.263Z,92.70
2023-05-16T08:34:16.125Z,91.63
2023-05-16T08:35:16.102Z,91.47
2023-05-16T08:36:16.109Z,91.47
2023-05-16T08:37:17.397Z,91.99
2023-05-16T08:38:16.087Z,92.19
2023-05-16T08:39:16.047Z,91.99
2023-05-16T08:40:16.040Z,92.29
2023-05-16T08:41:16.097Z,91.99
2023-05-16T08:42:16.020Z,92.29
2023-05-16T08:43:16.023Z,92.29
2023-05-16T08:44:16.021Z,92.29
2023-05-16T08:45:15.985Z,92.08
2023-05-16T08:46:16.040Z,92.08
2023-05-16T08:47:16.069Z,92.08
2023-05-16T08:48:16.049Z,91.57
2023-05-16T08:49:15.936Z,91.06
2023-05-16T08:50:15.931Z,90.75
2023-05-16T08:51:15.913Z,91.31
2023-05-16T08:52:15.923Z,91.82
2023-05-16T08:53:15.903Z,92.33
2023-05-16T08:54:15.900Z,92.80
2023-05-16T08:55:15.867Z,91.88
2023-05-16T08:56:15.863Z,91.57
2023-05-16T08:57:15.974Z,92.08
2023-05-16T08:58:15.854Z,92.23
2023-05-16T08:59:15.838Z,91.72
2023-05-16T09:00:15.820Z,92.54
2023-05-16T09:01:15.873Z,92.03
2023-05-16T09:02:15.816Z,91.61
2023-05-16T09:03:15.856Z,92.64
2023-05-16T09:04:15.792Z,92.54
2023-05-16T09:05:15.770Z,92.54
2023-05-16T09:06:15.759Z,92.70
2023-05-16T09:07:15.756Z,92.70
2023-05-16T09:08:15.733Z,92.70
2023-05-16T09:09:15.746Z,92.08
2023-05-16T09:10:15.722Z,92.19
2023-05-16T09:11:15.764Z,91.67
2023-05-16T09:12:15.702Z,91.99
2023-05-16T09:13:15.962Z,91.37
2023-05-16T09:14:15.657Z,92.08
2023-05-16T09:15:15.641Z,92.08
2023-05-16T09:16:15.711Z,91.99
2023-05-16T09:17:18.436Z,91.94
2023-05-16T09:18:16.697Z,91.57
2023-05-16T09:19:15.621Z,90.85
2023-05-16T09:20:15.734Z,91.74
2023-05-16T09:21:15.578Z,91.94
2023-05-16T09:22:15.598Z,91.06
2023-05-16T09:23:15.587Z,90.81
2023-05-16T09:24:15.572Z,91.63
2023-05-16T09:25:28.545Z,91.53
2023-05-16T09:26:16.566Z,91.42
2023-05-16T09:27:16.014Z,91.63
2023-05-16T09:28:15.500Z,91.22
2023-05-16T09:29:15.515Z,91.12
2023-05-16T09:30:15.511Z,91.16
2023-05-16T09:31:15.477Z,91.16
2023-05-16T09:32:15.461Z,90.75
2023-05-16T09:33:15.617Z,90.81
2023-05-16T09:34:15.456Z,91.12
2023-05-16T09:35:16.572Z,90.61
2023-05-16T09:36:15.409Z,90.81
2023-05-16T09:37:15.395Z,90.71
2023-05-16T09:38:15.400Z,90.61
2023-05-16T09:39:15.386Z,90.71
2023-05-16T09:40:15.362Z,90.61
2023-05-16T09:41:15.354Z,90.61
2023-05-16T09:42:15.337Z,90.20
2023-05-16T09:43:15.352Z,91.22
2023-05-16T09:44:15.326Z,90.36
2023-05-16T09:45:15.353Z,90.67
2023-05-16T09:46:15.378Z,90.50
2023-05-16T09:47:15.324Z,90.36
2023-05-16T09:48:15.425Z,90.56
2023-05-16T09:49:15.261Z,90.26
2023-05-16T09:50:17.167Z,90.56
2023-05-16T09:51:15.236Z,90.05
2023-05-16T09:52:15.212Z,89.95
2023-05-16T09:53:15.255Z,89.43
2023-05-16T09:54:15.228Z,90.36
2023-05-16T09:55:15.192Z,89.54
2023-05-16T09:56:15.173Z,89.43
2023-05-16T09:57:15.180Z,89.33
2023-05-16T09:58:15.156Z,90.16
2023-05-16T09:59:15.180Z,89.90
2023-05-16T10:00:15.122Z,89.90
2023-05-16T10:01:15.242Z,90.01
2023-05-16T10:02:15.150Z,89.36
2023-05-16T10:03:15.180Z,88.98
2023-05-16T10:04:15.158Z,89.04
2023-05-16T10:05:15.082Z,89.97
2023-05-16T10:06:15.054Z,89.15
2023-05-16T10:07:15.051Z,88.43
2023-05-16T10:08:15.047Z,88.94
2023-05-16T10:09:15.059Z,89.39
2023-05-16T10:10:15.010Z,88.64
2023-05-16T10:11:15.062Z,88.27
2023-05-16T10:12:14.989Z,88.27
2023-05-16T10:13:14.986Z,88.17
2023-05-16T10:14:14.968Z,88.78
2023-05-16T10:15:15.002Z,89.50
2023-05-16T10:16:15.745Z,88.88
2023-05-16T10:17:15.012Z,88.88
2023-05-16T10:18:14.965Z,88.78
2023-05-16T10:19:14.937Z,89.09
2023-05-16T10:20:14.919Z,89.13
2023-05-16T10:21:14.948Z,89.43
2023-05-16T10:22:14.886Z,89.64
2023-05-16T10:23:14.908Z,90.87
2023-05-16T10:24:14.846Z,90.67
2023-05-16T10:25:14.865Z,90.77
2023-05-16T10:26:14.905Z,90.77
2023-05-16T10:27:14.820Z,90.05
2023-05-16T10:28:14.804Z,89.33
2023-05-16T10:29:14.850Z,89.84
2023-05-16T10:30:14.780Z,90.52
2023-05-16T10:31:14.824Z,90.42
2023-05-16T10:32:14.949Z,91.03
2023-05-16T10:33:15.093Z,89.87
2023-05-16T10:34:14.736Z,89.09
2023-05-16T10:35:14.776Z,89.09
2023-05-16T10:36:14.734Z,88.78
2023-05-16T10:37:14.706Z,89.19
2023-05-16T10:38:14.693Z,89.29
2023-05-16T10:39:14.713Z,89.87
2023-05-16T10:40:15.187Z,90.01
2023-05-16T10:41:14.670Z,89.66
2023-05-16T10:42:14.652Z,89.56
2023-05-16T10:43:14.696Z,89.25
2023-05-16T10:44:14.701Z,89.97
2023-05-16T10:45:14.641Z,89.83
2023-05-16T10:46:14.969Z,89.11
2023-05-16T10:47:14.603Z,89.45
2023-05-16T10:48:14.645Z,88.33
2023-05-16T10:49:14.642Z,88.23
2023-05-16T10:50:14.879Z,89.36
2023-05-16T10:51:14.563Z,89.21
2023-05-16T10:52:14.542Z,89.21
2023-05-16T10:53:14.539Z,89.36
2023-05-16T10:54:14.555Z,89.00
2023-05-16T10:55:14.503Z,89.11
2023-05-16T10:56:14.506Z,88.29
2023-05-16T10:57:14.470Z,88.33
2023-05-16T10:58:14.463Z,89.25
2023-05-16T10:59:14.468Z,88.53
2023-05-16T11:00:14.503Z,89.04
2023-05-16T11:01:14.479Z,89.36
2023-05-16T11:02:14.484Z,89.45
2023-05-16T11:03:14.508Z,89.36
2023-05-16T11:04:14.451Z,89.45
2023-05-16T11:05:14.446Z,89.25
2023-05-16T11:06:14.406Z,89.04
2023-05-16T11:07:14.446Z,88.94
2023-05-16T11:08:14.369Z,89.04
2023-05-16T11:09:14.397Z,88.98
2023-05-16T11:10:14.432Z,89.04
2023-05-16T11:11:14.347Z,89.36
2023-05-16T11:12:14.358Z,88.27
2023-05-16T11:13:14.327Z,89.25
2023-05-16T11:14:14.274Z,89.15
2023-05-16T11:15:14.307Z,88.94
2023-05-16T11:16:14.263Z,88.43
2023-05-16T11:17:14.377Z,89.00
2023-05-16T11:18:14.287Z,88.35
2023-05-16T11:19:14.328Z,88.24
2023-05-16T11:20:14.243Z,87.94
2023-05-16T11:21:14.218Z,87.18
2023-05-16T11:22:14.204Z,86.98
2023-05-16T11:23:14.230Z,87.18
2023-05-16T11:24:14.191Z,86.98
2023-05-16T11:25:14.208Z,86.46
2023-05-16T11:26:14.142Z,86.16
2023-05-16T11:27:14.143Z,85.81
2023-05-16T11:28:14.119Z,86.26
2023-05-16T11:29:14.113Z,86.10
2023-05-16T11:30:14.188Z,86.26
2023-05-16T11:31:14.116Z,86.88
2023-05-16T11:32:14.095Z,87.18
2023-05-16T11:33:14.235Z,86.88
2023-05-16T11:34:14.071Z,86.16
2023-05-16T11:35:15.210Z,85.85
2023-05-16T11:36:15.947Z,85.85
2023-05-16T11:37:14.210Z,87.18
2023-05-16T11:38:14.024Z,87.08
2023-05-16T11:39:14.058Z,86.26
2023-05-16T11:40:14.125Z,86.16
2023-05-16T11:41:13.969Z,85.85
2023-05-16T11:42:13.977Z,86.05
2023-05-16T11:43:13.985Z,85.44
2023-05-16T11:44:13.965Z,86.36
2023-05-16T11:45:13.941Z,86.67
2023-05-16T11:46:14.316Z,86.57
2023-05-16T11:47:13.961Z,85.71
2023-05-16T11:48:21.773Z,86.53
2023-05-16T11:49:14.892Z,86.94
2023-05-16T11:50:13.969Z,86.69
2023-05-16T11:51:13.890Z,85.88
2023-05-16T11:52:13.877Z,85.77
2023-05-16T11:53:13.880Z,85.67
2023-05-16T11:54:13.848Z,85.36
2023-05-16T11:55:15.740Z,84.75
2023-05-16T11:56:14.837Z,84.85
2023-05-16T11:57:13.790Z,84.91
2023-05-16T11:58:13.780Z,85.36
2023-05-16T11:59:13.785Z,84.14
2023-05-16T12:00:13.887Z,83.93
2023-05-16T12:01:13.789Z,84.03
2023-05-16T12:02:13.730Z,83.52
2023-05-16T12:03:13.799Z,84.00
2023-05-16T12:04:13.910Z,84.09
2023-05-16T12:05:13.736Z,83.89
2023-05-16T12:06:13.720Z,83.95
2023-05-16T12:07:13.703Z,83.79
2023-05-16T12:08:13.709Z,84.16
2023-05-16T12:09:14.341Z,83.38
2023-05-16T12:10:13.668Z,82.56
2023-05-16T12:11:13.641Z,83.38
2023-05-16T12:12:13.667Z,83.62
2023-05-16T12:13:13.647Z,83.52
2023-05-16T12:14:13.605Z,83.69
2023-05-16T12:15:13.601Z,83.18
2023-05-16T12:16:13.590Z,84.09
2023-05-16T12:17:13.596Z,83.38
2023-05-16T12:18:13.701Z,83.93
2023-05-16T12:19:14.282Z,83.93
2023-05-16T12:20:13.578Z,83.73
2023-05-16T12:21:13.575Z,83.22
2023-05-16T12:22:13.514Z,83.93
2023-05-16T12:23:13.578Z,83.52
2023-05-16T12:24:13.492Z,84.38
2023-05-16T12:25:13.634Z,84.28
2023-05-16T12:26:13.471Z,84.17
2023-05-16T12:27:13.465Z,84.99
2023-05-16T12:28:13.452Z,83.76
2023-05-16T12:29:13.454Z,84.79
2023-05-16T12:30:13.433Z,84.63
2023-05-16T12:31:26.622Z,84.93
2023-05-16T12:32:14.444Z,85.34
2023-05-16T12:33:13.513Z,85.55
2023-05-16T12:34:13.404Z,85.61
2023-05-16T12:35:13.429Z,86.05
2023-05-16T12:36:13.384Z,86.16
2023-05-16T12:37:13.379Z,85.96
2023-05-16T12:38:13.325Z,86.10
2023-05-16T12:39:13.352Z,86.05
2023-05-16T12:40:13.306Z,86.16
2023-05-16T12:41:13.342Z,86.46
2023-05-16T12:42:13.287Z,85.64
2023-05-16T12:43:13.267Z,85.55
2023-05-16T12:44:13.251Z,85.24
2023-05-16T12:45:13.239Z,85.96
2023-05-16T12:46:13.325Z,85.85
2023-05-16T12:47:13.377Z,86.05
2023-05-16T12:48:13.265Z,85.85
2023-05-16T12:49:13.198Z,86.46
2023-05-16T12:50:13.248Z,86.05
2023-05-16T12:51:13.211Z,86.26
2023-05-16T12:52:13.173Z,85.64